sensor_id;sensor_type;location;lat;lon;timestamp;pressure;altitude;pressure_sealevel;temperature;humidity
71735;BME280;59577;52.122;5.406;2022-09-01T00:02:28;102295.22;;;15.81;64.55
71735;BME280;59577;52.122;5.406;2022-09-01T00:04:55;102297.50;;;15.78;64.74
71735;BME280;59577;52.122;5.406;2022-09-01T00:07:28;102301.38;;;15.77;64.21
71735;BME280;59577;52.122;5.406;2022-09-01T00:10:00;102296.94;;;15.73;64.63
71735;BME280;59577;52.122;5.406;2022-09-01T00:12:28;102292.97;;;15.70;64.97
71735;BME280;59577;52.122;5.406;2022-09-01T00:14:54;102292.00;;;15.63;65.30
71735;BME280;59577;52.122;5.406;2022-09-01T00:17:21;102300.53;;;15.61;65.40
71735;BME280;59577;52.122;5.406;2022-09-01T00:19:47;102299.28;;;15.58;65.26
71735;BME280;59577;52.122;5.406;2022-09-01T00:22:14;102287.94;;;15.56;65.40
71735;BME280;59577;52.122;5.406;2022-09-01T00:24:41;102290.66;;;15.56;65.16
71735;BME280;59577;52.122;5.406;2022-09-01T00:27:07;102297.16;;;15.52;65.60
71735;BME280;59577;52.122;5.406;2022-09-01T00:29:34;102297.06;;;15.48;66.01
71735;BME280;59577;52.122;5.406;2022-09-01T00:32:01;102291.59;;;15.48;65.83
71735;BME280;59577;52.122;5.406;2022-09-01T00:34:28;102299.44;;;15.50;65.80
71735;BME280;59577;52.122;5.406;2022-09-01T00:36:54;102292.44;;;15.49;66.00
71735;BME280;59577;52.122;5.406;2022-09-01T00:39:21;102294.34;;;15.48;65.92
71735;BME280;59577;52.122;5.406;2022-09-01T00:41:47;102293.47;;;15.44;66.11
71735;BME280;59577;52.122;5.406;2022-09-01T00:44:19;102291.06;;;15.42;66.09
71735;BME280;59577;52.122;5.406;2022-09-01T00:46:50;102282.81;;;15.39;66.33
71735;BME280;59577;52.122;5.406;2022-09-01T00:49:37;102283.50;;;15.36;66.34
71735;BME280;59577;52.122;5.406;2022-09-01T00:52:11;102281.81;;;15.31;66.16
71735;BME280;59577;52.122;5.406;2022-09-01T00:54:41;102273.09;;;15.26;66.70
71735;BME280;59577;52.122;5.406;2022-09-01T00:57:10;102270.25;;;15.22;66.86
71735;BME280;59577;52.122;5.406;2022-09-01T00:59:42;102276.06;;;15.20;66.83
71735;BME280;59577;52.122;5.406;2022-09-01T01:02:11;102279.84;;;15.16;66.97
71735;BME280;59577;52.122;5.406;2022-09-01T01:04:38;102279.75;;;15.12;67.17
71735;BME280;59577;52.122;5.406;2022-09-01T01:07:07;102282.00;;;15.10;67.34
71735;BME280;59577;52.122;5.406;2022-09-01T01:09:38;102280.34;;;15.06;67.22
71735;BME280;59577;52.122;5.406;2022-09-01T01:12:06;102274.88;;;15.06;67.17
71735;BME280;59577;52.122;5.406;2022-09-01T01:14:36;102280.34;;;15.06;67.38
71735;BME280;59577;52.122;5.406;2022-09-01T01:17:05;102272.25;;;15.09;67.33
71735;BME280;59577;52.122;5.406;2022-09-01T01:19:44;102266.25;;;15.03;67.57
71735;BME280;59577;52.122;5.406;2022-09-01T01:25:23;102275.38;;;14.95;67.81
71735;BME280;59577;52.122;5.406;2022-09-01T01:27:51;102274.47;;;14.91;67.83
71735;BME280;59577;52.122;5.406;2022-09-01T01:30:18;102270.06;;;14.87;68.18
71735;BME280;59577;52.122;5.406;2022-09-01T01:32:46;102266.09;;;14.84;68.04
71735;BME280;59577;52.122;5.406;2022-09-01T01:35:14;102271.78;;;14.79;68.46
71735;BME280;59577;52.122;5.406;2022-09-01T01:37:45;102267.47;;;14.78;68.32
71735;BME280;59577;52.122;5.406;2022-09-01T01:40:16;102272.84;;;14.74;68.91
71735;BME280;59577;52.122;5.406;2022-09-01T01:42:47;102268.84;;;14.72;68.33
71735;BME280;59577;52.122;5.406;2022-09-01T01:45:18;102278.53;;;14.69;68.47
71735;BME280;59577;52.122;5.406;2022-09-01T01:47:47;102269.78;;;14.63;68.70
71735;BME280;59577;52.122;5.406;2022-09-01T01:50:29;102266.94;;;14.60;68.84
71735;BME280;59577;52.122;5.406;2022-09-01T01:52:59;102274.78;;;14.61;68.48
71735;BME280;59577;52.122;5.406;2022-09-01T01:55:36;102280.56;;;14.60;68.51
71735;BME280;59577;52.122;5.406;2022-09-01T01:58:03;102277.72;;;14.56;68.50
71735;BME280;59577;52.122;5.406;2022-09-01T02:00:30;102276.59;;;14.57;68.75
71735;BME280;59577;52.122;5.406;2022-09-01T02:03:00;102272.94;;;14.53;69.14
71735;BME280;59577;52.122;5.406;2022-09-01T02:05:29;102269.44;;;14.53;69.33
71735;BME280;59577;52.122;5.406;2022-09-01T02:08:00;102266.59;;;14.49;69.74
71735;BME280;59577;52.122;5.406;2022-09-01T02:10:32;102274.09;;;14.52;69.60
71735;BME280;59577;52.122;5.406;2022-09-01T02:13:02;102281.94;;;14.54;69.25
71735;BME280;59577;52.122;5.406;2022-09-01T02:15:34;102271.38;;;14.52;69.33
71735;BME280;59577;52.122;5.406;2022-09-01T02:18:09;102271.25;;;14.48;69.32
71735;BME280;59577;52.122;5.406;2022-09-01T02:20:36;102271.59;;;14.47;69.73
71735;BME280;59577;52.122;5.406;2022-09-01T02:23:03;102275.34;;;14.42;69.92
71735;BME280;59577;52.122;5.406;2022-09-01T02:25:41;102272.97;;;14.41;70.22
71735;BME280;59577;52.122;5.406;2022-09-01T02:28:31;102274.44;;;14.38;69.71
71735;BME280;59577;52.122;5.406;2022-09-01T02:31:00;102271.97;;;14.33;70.23
71735;BME280;59577;52.122;5.406;2022-09-01T02:33:30;102269.13;;;14.29;69.89
71735;BME280;59577;52.122;5.406;2022-09-01T02:36:00;102275.03;;;14.32;69.85
71735;BME280;59577;52.122;5.406;2022-09-01T02:38:28;102276.25;;;14.34;69.95
71735;BME280;59577;52.122;5.406;2022-09-01T02:40:56;102272.41;;;14.35;70.30
71735;BME280;59577;52.122;5.406;2022-09-01T02:43:25;102270.47;;;14.36;69.91
71735;BME280;59577;52.122;5.406;2022-09-01T02:45:55;102268.19;;;14.38;69.98
71735;BME280;59577;52.122;5.406;2022-09-01T02:48:45;102275.25;;;14.39;69.86
71735;BME280;59577;52.122;5.406;2022-09-01T02:51:19;102278.97;;;14.34;69.75
71735;BME280;59577;52.122;5.406;2022-09-01T02:53:46;102271.84;;;14.29;70.12
71735;BME280;59577;52.122;5.406;2022-09-01T02:56:20;102269.03;;;14.26;70.11
71735;BME280;59577;52.122;5.406;2022-09-01T02:58:51;102268.09;;;14.22;70.32
71735;BME280;59577;52.122;5.406;2022-09-01T03:01:22;102266.19;;;14.22;70.43
71735;BME280;59577;52.122;5.406;2022-09-01T03:03:54;102264.47;;;14.18;70.19
71735;BME280;59577;52.122;5.406;2022-09-01T03:06:22;102267.53;;;14.16;70.59
71735;BME280;59577;52.122;5.406;2022-09-01T03:08:54;102261.97;;;14.13;70.57
71735;BME280;59577;52.122;5.406;2022-09-01T03:11:22;102264.69;;;14.13;70.25
71735;BME280;59577;52.122;5.406;2022-09-01T03:13:50;102264.25;;;14.10;70.22
71735;BME280;59577;52.122;5.406;2022-09-01T03:16:16;102263.66;;;14.05;70.21
71735;BME280;59577;52.122;5.406;2022-09-01T03:18:44;102264.16;;;14.07;70.29
71735;BME280;59577;52.122;5.406;2022-09-01T03:21:10;102271.97;;;14.08;70.25
71735;BME280;59577;52.122;5.406;2022-09-01T03:23:42;102260.38;;;14.11;70.66
71735;BME280;59577;52.122;5.406;2022-09-01T03:26:09;102268.78;;;14.06;70.86
71735;BME280;59577;52.122;5.406;2022-09-01T03:28:37;102262.09;;;14.04;70.97
71735;BME280;59577;52.122;5.406;2022-09-01T03:31:03;102259.03;;;14.05;70.75
71735;BME280;59577;52.122;5.406;2022-09-01T03:33:30;102263.66;;;14.05;70.39
71735;BME280;59577;52.122;5.406;2022-09-01T03:35:57;102262.44;;;14.02;70.22
71735;BME280;59577;52.122;5.406;2022-09-01T03:38:25;102266.28;;;14.01;70.34
71735;BME280;59577;52.122;5.406;2022-09-01T03:40:55;102259.59;;;13.99;70.58
71735;BME280;59577;52.122;5.406;2022-09-01T03:43:24;102258.81;;;13.98;70.56
71735;BME280;59577;52.122;5.406;2022-09-01T03:46:01;102260.72;;;13.98;70.12
71735;BME280;59577;52.122;5.406;2022-09-01T03:48:28;102255.50;;;13.92;70.54
71735;BME280;59577;52.122;5.406;2022-09-01T03:50:58;102252.66;;;13.89;70.40
71735;BME280;59577;52.122;5.406;2022-09-01T03:53:30;102256.06;;;13.86;70.89
71735;BME280;59577;52.122;5.406;2022-09-01T03:55:58;102262.41;;;13.78;70.74
71735;BME280;59577;52.122;5.406;2022-09-01T03:58:25;102251.09;;;13.76;70.45
71735;BME280;59577;52.122;5.406;2022-09-01T04:00:54;102255.38;;;13.77;70.71
71735;BME280;59577;52.122;5.406;2022-09-01T04:03:24;102253.81;;;13.76;70.88
71735;BME280;59577;52.122;5.406;2022-09-01T04:05:54;102250.25;;;13.75;70.71
71735;BME280;59577;52.122;5.406;2022-09-01T04:08:22;102257.53;;;13.71;70.72
71735;BME280;59577;52.122;5.406;2022-09-01T04:11:00;102249.91;;;13.64;70.68
71735;BME280;59577;52.122;5.406;2022-09-01T04:13:37;102258.09;;;13.64;71.24
71735;BME280;59577;52.122;5.406;2022-09-01T04:16:04;102252.97;;;13.63;71.21
71735;BME280;59577;52.122;5.406;2022-09-01T04:18:56;102253.75;;;13.63;70.52
71735;BME280;59577;52.122;5.406;2022-09-01T04:21:25;102248.53;;;13.58;70.96
71735;BME280;59577;52.122;5.406;2022-09-01T04:23:51;102255.00;;;13.53;70.92
71735;BME280;59577;52.122;5.406;2022-09-01T04:26:18;102249.78;;;13.48;71.11
71735;BME280;59577;52.122;5.406;2022-09-01T04:28:49;102253.63;;;13.47;71.52
71735;BME280;59577;52.122;5.406;2022-09-01T04:31:19;102260.53;;;13.45;71.71
71735;BME280;59577;52.122;5.406;2022-09-01T04:33:48;102256.56;;;13.42;71.47
71735;BME280;59577;52.122;5.406;2022-09-01T04:38:46;102250.09;;;13.34;72.16
71735;BME280;59577;52.122;5.406;2022-09-01T04:41:15;102249.63;;;13.32;71.76
71735;BME280;59577;52.122;5.406;2022-09-01T04:43:44;102254.25;;;13.32;71.93
71735;BME280;59577;52.122;5.406;2022-09-01T04:46:14;102248.34;;;13.30;72.20
71735;BME280;59577;52.122;5.406;2022-09-01T04:48:41;102245.81;;;13.25;72.34
71735;BME280;59577;52.122;5.406;2022-09-01T04:51:11;102240.25;;;13.21;72.12
71735;BME280;59577;52.122;5.406;2022-09-01T04:53:41;102243.31;;;13.20;72.06
71735;BME280;59577;52.122;5.406;2022-09-01T04:56:16;102244.25;;;13.24;72.16
71735;BME280;59577;52.122;5.406;2022-09-01T04:58:46;102249.69;;;13.24;72.31
71735;BME280;59577;52.122;5.406;2022-09-01T05:01:16;102250.47;;;13.24;72.05
71735;BME280;59577;52.122;5.406;2022-09-01T05:03:43;102251.72;;;13.27;71.96
71735;BME280;59577;52.122;5.406;2022-09-01T05:06:15;102244.81;;;13.29;72.14
71735;BME280;59577;52.122;5.406;2022-09-01T05:08:43;102251.84;;;13.30;71.79
71735;BME280;59577;52.122;5.406;2022-09-01T05:11:12;102249.13;;;13.30;71.99
71735;BME280;59577;52.122;5.406;2022-09-01T05:13:44;102248.66;;;13.28;71.88
71735;BME280;59577;52.122;5.406;2022-09-01T05:16:13;102258.09;;;13.31;72.12
71735;BME280;59577;52.122;5.406;2022-09-01T05:18:42;102260.50;;;13.32;72.29
71735;BME280;59577;52.122;5.406;2022-09-01T05:21:14;102258.91;;;13.31;71.92
71735;BME280;59577;52.122;5.406;2022-09-01T05:23:43;102262.53;;;13.35;71.66
71735;BME280;59577;52.122;5.406;2022-09-01T05:26:15;102263.03;;;13.38;71.87
71735;BME280;59577;52.122;5.406;2022-09-01T05:28:44;102256.56;;;13.42;72.08
71735;BME280;59577;52.122;5.406;2022-09-01T05:31:10;102259.88;;;13.48;71.97
71735;BME280;59577;52.122;5.406;2022-09-01T05:33:39;102252.63;;;13.52;71.69
71735;BME280;59577;52.122;5.406;2022-09-01T05:36:12;102263.75;;;13.59;71.72
71735;BME280;59577;52.122;5.406;2022-09-01T05:38:40;102264.44;;;13.68;71.23
71735;BME280;59577;52.122;5.406;2022-09-01T05:41:09;102257.44;;;13.92;71.13
71735;BME280;59577;52.122;5.406;2022-09-01T05:43:36;102262.53;;;14.06;70.96
71735;BME280;59577;52.122;5.406;2022-09-01T05:46:07;102269.38;;;14.12;70.96
71735;BME280;59577;52.122;5.406;2022-09-01T05:48:34;102264.13;;;14.32;70.38
71735;BME280;59577;52.122;5.406;2022-09-01T05:51:06;102268.09;;;14.46;69.65
71735;BME280;59577;52.122;5.406;2022-09-01T05:53:54;102266.03;;;14.56;69.27
71735;BME280;59577;52.122;5.406;2022-09-01T05:56:25;102264.09;;;14.69;68.95
71735;BME280;59577;52.122;5.406;2022-09-01T05:58:53;102263.03;;;14.85;68.36
71735;BME280;59577;52.122;5.406;2022-09-01T06:01:40;102269.28;;;14.74;68.39
71735;BME280;59577;52.122;5.406;2022-09-01T06:04:12;102271.81;;;14.66;68.37
71735;BME280;59577;52.122;5.406;2022-09-01T06:06:44;102275.78;;;14.69;68.94
71735;BME280;59577;52.122;5.406;2022-09-01T06:09:31;102272.75;;;14.99;67.81
71735;BME280;59577;52.122;5.406;2022-09-01T06:11:58;102271.69;;;15.03;67.03
71735;BME280;59577;52.122;5.406;2022-09-01T06:14:24;102269.88;;;15.08;68.34
71735;BME280;59577;52.122;5.406;2022-09-01T06:16:51;102278.50;;;15.10;67.55
71735;BME280;59577;52.122;5.406;2022-09-01T06:19:19;102277.84;;;16.21;66.32
71735;BME280;59577;52.122;5.406;2022-09-01T06:21:46;102265.78;;;18.88;59.58
71735;BME280;59577;52.122;5.406;2022-09-01T06:24:13;102266.78;;;19.92;54.60
71735;BME280;59577;52.122;5.406;2022-09-01T06:26:40;102274.06;;;17.85;56.48
71735;BME280;59577;52.122;5.406;2022-09-01T06:29:09;102272.09;;;16.61;59.16
71735;BME280;59577;52.122;5.406;2022-09-01T06:31:40;102267.63;;;16.02;60.94
71735;BME280;59577;52.122;5.406;2022-09-01T06:34:09;102277.03;;;15.72;61.96
71735;BME280;59577;52.122;5.406;2022-09-01T06:36:38;102269.97;;;15.55;62.48
71735;BME280;59577;52.122;5.406;2022-09-01T06:39:09;102276.66;;;15.42;63.27
71735;BME280;59577;52.122;5.406;2022-09-01T06:41:42;102277.44;;;15.42;63.45
71735;BME280;59577;52.122;5.406;2022-09-01T06:44:11;102286.66;;;15.38;63.66
71735;BME280;59577;52.122;5.406;2022-09-01T06:46:39;102281.19;;;15.38;63.56
71735;BME280;59577;52.122;5.406;2022-09-01T06:49:06;102284.84;;;15.42;63.65
71735;BME280;59577;52.122;5.406;2022-09-01T06:51:37;102292.34;;;15.45;63.72
71735;BME280;59577;52.122;5.406;2022-09-01T06:54:04;102286.25;;;15.52;63.61
71735;BME280;59577;52.122;5.406;2022-09-01T06:56:39;102291.19;;;15.62;63.11
71735;BME280;59577;52.122;5.406;2022-09-01T06:59:16;102296.75;;;15.66;63.12
71735;BME280;59577;52.122;5.406;2022-09-01T07:01:43;102291.59;;;15.76;62.73
71735;BME280;59577;52.122;5.406;2022-09-01T07:04:10;102294.25;;;15.89;62.50
71735;BME280;59577;52.122;5.406;2022-09-01T07:06:39;102296.09;;;16.01;61.70
71735;BME280;59577;52.122;5.406;2022-09-01T07:09:27;102298.31;;;16.11;61.15
71735;BME280;59577;52.122;5.406;2022-09-01T07:12:12;102298.63;;;16.25;60.60
71735;BME280;59577;52.122;5.406;2022-09-01T07:14:55;102302.28;;;16.49;60.73
71735;BME280;59577;52.122;5.406;2022-09-01T07:17:52;102295.97;;;19.63;54.54
71735;BME280;59577;52.122;5.406;2022-09-01T07:20:20;102295.47;;;21.64;48.43
71735;BME280;59577;52.122;5.406;2022-09-01T07:22:51;102291.38;;;22.72;45.58
71735;BME280;59577;52.122;5.406;2022-09-01T07:25:36;102295.06;;;24.65;41.71
71735;BME280;59577;52.122;5.406;2022-09-01T07:28:24;102294.16;;;26.88;38.20
71735;BME280;59577;52.122;5.406;2022-09-01T07:31:02;102283.44;;;28.05;33.20
71735;BME280;59577;52.122;5.406;2022-09-01T07:33:52;102284.25;;;28.18;32.57
71735;BME280;59577;52.122;5.406;2022-09-01T07:36:41;102284.53;;;29.56;31.58
71735;BME280;59577;52.122;5.406;2022-09-01T07:39:28;102289.88;;;30.55;29.53
71735;BME280;59577;52.122;5.406;2022-09-01T07:42:18;102285.22;;;31.24;28.41
71735;BME280;59577;52.122;5.406;2022-09-01T07:45:09;102280.03;;;32.00;27.79
71735;BME280;59577;52.122;5.406;2022-09-01T07:47:54;102282.38;;;32.01;26.68
71735;BME280;59577;52.122;5.406;2022-09-01T07:50:21;102275.97;;;32.01;25.75
71735;BME280;59577;52.122;5.406;2022-09-01T07:53:05;102284.16;;;31.49;26.89
71735;BME280;59577;52.122;5.406;2022-09-01T07:55:33;102283.16;;;31.93;26.71
71735;BME280;59577;52.122;5.406;2022-09-01T07:58:00;102279.56;;;31.74;25.86
71735;BME280;59577;52.122;5.406;2022-09-01T08:00:27;102285.53;;;31.26;25.77
71735;BME280;59577;52.122;5.406;2022-09-01T08:02:56;102279.31;;;31.31;26.34
71735;BME280;59577;52.122;5.406;2022-09-01T08:05:24;102280.97;;;31.97;25.84
71735;BME280;59577;52.122;5.406;2022-09-01T08:15:27;102265.44;;;32.05;25.52
71735;BME280;59577;52.122;5.406;2022-09-01T08:18:13;102269.44;;;32.13;25.59
71735;BME280;59577;52.122;5.406;2022-09-01T08:20:42;102274.75;;;31.74;25.60
71735;BME280;59577;52.122;5.406;2022-09-01T08:23:13;102279.75;;;32.07;26.29
71735;BME280;59577;52.122;5.406;2022-09-01T08:25:41;102276.69;;;32.57;27.04
71735;BME280;59577;52.122;5.406;2022-09-01T08:28:10;102273.44;;;32.49;24.85
71735;BME280;59577;52.122;5.406;2022-09-01T08:30:39;102277.53;;;31.83;25.58
71735;BME280;59577;52.122;5.406;2022-09-01T08:33:06;102286.91;;;31.21;25.42
71735;BME280;59577;52.122;5.406;2022-09-01T08:35:41;102274.81;;;30.84;25.96
71735;BME280;59577;52.122;5.406;2022-09-01T08:38:09;102286.69;;;30.44;26.27
71735;BME280;59577;52.122;5.406;2022-09-01T08:40:35;102274.22;;;30.58;26.64
71735;BME280;59577;52.122;5.406;2022-09-01T08:45:52;102273.19;;;31.05;26.52
71735;BME280;59577;52.122;5.406;2022-09-01T08:48:29;102271.19;;;30.83;26.55
71735;BME280;59577;52.122;5.406;2022-09-01T08:51:39;102271.66;;;31.13;26.60
71735;BME280;59577;52.122;5.406;2022-09-01T08:56:59;102271.66;;;30.06;26.89
71735;BME280;59577;52.122;5.406;2022-09-01T08:59:27;102275.22;;;29.85;27.20
71735;BME280;59577;52.122;5.406;2022-09-01T09:02:14;102269.44;;;29.79;27.76
71735;BME280;59577;52.122;5.406;2022-09-01T09:04:59;102262.53;;;29.58;26.84
71735;BME280;59577;52.122;5.406;2022-09-01T09:08:17;102264.56;;;29.57;26.86
71735;BME280;59577;52.122;5.406;2022-09-01T09:10:58;102265.41;;;29.19;27.28
71735;BME280;59577;52.122;5.406;2022-09-01T09:16:23;102267.50;;;29.02;28.31
71735;BME280;59577;52.122;5.406;2022-09-01T09:19:02;102259.81;;;28.94;27.61
71735;BME280;59577;52.122;5.406;2022-09-01T09:21:36;102255.56;;;28.76;27.99
71735;BME280;59577;52.122;5.406;2022-09-01T09:24:15;102255.41;;;28.54;28.72
71735;BME280;59577;52.122;5.406;2022-09-01T09:26:52;102250.88;;;28.86;27.92
71735;BME280;59577;52.122;5.406;2022-09-01T09:29:19;102248.19;;;28.57;27.32
71735;BME280;59577;52.122;5.406;2022-09-01T09:32:01;102248.88;;;28.74;27.79
71735;BME280;59577;52.122;5.406;2022-09-01T09:34:35;102234.75;;;28.39;27.61
71735;BME280;59577;52.122;5.406;2022-09-01T09:37:28;102239.97;;;28.79;27.52
71735;BME280;59577;52.122;5.406;2022-09-01T09:40:16;102238.59;;;28.70;27.78
71735;BME280;59577;52.122;5.406;2022-09-01T09:45:33;102235.50;;;29.20;26.88
71735;BME280;59577;52.122;5.406;2022-09-01T09:48:26;102222.34;;;29.07;25.58
71735;BME280;59577;52.122;5.406;2022-09-01T09:50:51;102225.78;;;29.12;26.41
71735;BME280;59577;52.122;5.406;2022-09-01T09:56:08;102218.88;;;29.03;26.05
71735;BME280;59577;52.122;5.406;2022-09-01T09:58:43;102216.19;;;29.38;26.05
71735;BME280;59577;52.122;5.406;2022-09-01T10:03:55;102219.06;;;29.83;26.33
71735;BME280;59577;52.122;5.406;2022-09-01T10:06:41;102217.50;;;29.81;25.73
71735;BME280;59577;52.122;5.406;2022-09-01T10:09:16;102211.13;;;30.03;24.05
71735;BME280;59577;52.122;5.406;2022-09-01T10:11:58;102213.69;;;29.75;24.13
71735;BME280;59577;52.122;5.406;2022-09-01T10:14:30;102208.22;;;29.50;24.20
71735;BME280;59577;52.122;5.406;2022-09-01T10:17:28;102198.06;;;29.78;24.28
71735;BME280;59577;52.122;5.406;2022-09-01T10:19:59;102212.91;;;29.53;24.22
71735;BME280;59577;52.122;5.406;2022-09-01T10:22:31;102205.53;;;29.59;24.39
71735;BME280;59577;52.122;5.406;2022-09-01T10:24:59;102209.16;;;29.69;25.13
71735;BME280;59577;52.122;5.406;2022-09-01T10:27:30;102200.66;;;29.37;24.52
71735;BME280;59577;52.122;5.406;2022-09-01T10:30:02;102206.59;;;29.14;24.08
71735;BME280;59577;52.122;5.406;2022-09-01T10:32:56;102201.03;;;29.01;24.07
71735;BME280;59577;52.122;5.406;2022-09-01T10:35:35;102188.44;;;28.96;24.72
71735;BME280;59577;52.122;5.406;2022-09-01T10:38:09;102194.25;;;28.63;24.67
71735;BME280;59577;52.122;5.406;2022-09-01T10:40:47;102196.59;;;28.65;25.89
71735;BME280;59577;52.122;5.406;2022-09-01T10:43:44;102190.03;;;28.59;25.37
71735;BME280;59577;52.122;5.406;2022-09-01T10:48:53;102189.72;;;28.14;25.52
71735;BME280;59577;52.122;5.406;2022-09-01T10:54:00;102177.56;;;28.08;25.46
71735;BME280;59577;52.122;5.406;2022-09-01T10:56:48;102174.28;;;27.97;25.89
71735;BME280;59577;52.122;5.406;2022-09-01T10:59:28;102181.66;;;27.74;26.03
71735;BME280;59577;52.122;5.406;2022-09-01T11:02:15;102191.00;;;27.81;26.57
71735;BME280;59577;52.122;5.406;2022-09-01T11:07:32;102185.53;;;27.93;25.82
71735;BME280;59577;52.122;5.406;2022-09-01T11:10:40;102181.97;;;27.93;25.76
71735;BME280;59577;52.122;5.406;2022-09-01T11:15:47;102171.72;;;28.45;24.88
71735;BME280;59577;52.122;5.406;2022-09-01T11:18:22;102166.88;;;28.32;24.98
71735;BME280;59577;52.122;5.406;2022-09-01T11:20:53;102171.13;;;28.24;25.51
71735;BME280;59577;52.122;5.406;2022-09-01T11:23:27;102173.41;;;28.00;24.45
71735;BME280;59577;52.122;5.406;2022-09-01T11:26:00;102182.09;;;27.73;24.94
71735;BME280;59577;52.122;5.406;2022-09-01T11:28:44;102176.81;;;27.62;24.90
71735;BME280;59577;52.122;5.406;2022-09-01T11:31:22;102175.50;;;27.37;25.23
71735;BME280;59577;52.122;5.406;2022-09-01T11:34:13;102171.47;;;27.22;26.08
71735;BME280;59577;52.122;5.406;2022-09-01T11:39:29;102166.19;;;26.95;26.51
71735;BME280;59577;52.122;5.406;2022-09-01T11:45:01;102155.22;;;26.71;27.04
71735;BME280;59577;52.122;5.406;2022-09-01T11:47:34;102154.19;;;26.65;27.37
71735;BME280;59577;52.122;5.406;2022-09-01T11:53:19;102152.88;;;26.86;26.95
71735;BME280;59577;52.122;5.406;2022-09-01T11:55:48;102156.97;;;26.65;27.18
71735;BME280;59577;52.122;5.406;2022-09-01T12:00:53;102140.78;;;26.60;27.17
71735;BME280;59577;52.122;5.406;2022-09-01T12:03:22;102141.47;;;26.48;26.90
71735;BME280;59577;52.122;5.406;2022-09-01T12:05:59;102139.88;;;26.46;28.64
71735;BME280;59577;52.122;5.406;2022-09-01T12:08:30;102134.34;;;26.26;29.39
71735;BME280;59577;52.122;5.406;2022-09-01T12:11:10;102133.81;;;26.52;28.37
71735;BME280;59577;52.122;5.406;2022-09-01T12:13:39;102139.19;;;26.59;26.75
71735;BME280;59577;52.122;5.406;2022-09-01T12:16:08;102135.50;;;26.66;27.60
71735;BME280;59577;52.122;5.406;2022-09-01T12:18:50;102135.25;;;26.76;26.66
71735;BME280;59577;52.122;5.406;2022-09-01T12:21:30;102128.16;;;26.75;27.05
71735;BME280;59577;52.122;5.406;2022-09-01T12:26:40;102121.97;;;26.68;27.64
71735;BME280;59577;52.122;5.406;2022-09-01T12:29:08;102119.38;;;26.77;28.51
71735;BME280;59577;52.122;5.406;2022-09-01T12:31:36;102130.38;;;26.64;27.69
71735;BME280;59577;52.122;5.406;2022-09-01T12:34:23;102128.44;;;26.44;28.43
71735;BME280;59577;52.122;5.406;2022-09-01T12:39:41;102118.22;;;26.58;27.71
71735;BME280;59577;52.122;5.406;2022-09-01T12:42:11;102127.19;;;26.45;28.30
71735;BME280;59577;52.122;5.406;2022-09-01T12:45:04;102128.28;;;26.68;28.30
71735;BME280;59577;52.122;5.406;2022-09-01T12:52:52;102107.03;;;26.61;27.83
71735;BME280;59577;52.122;5.406;2022-09-01T12:55:29;102114.56;;;26.61;27.92
71735;BME280;59577;52.122;5.406;2022-09-01T12:58:22;102109.75;;;26.65;28.03
71735;BME280;59577;52.122;5.406;2022-09-01T13:01:05;102107.81;;;26.62;27.35
71735;BME280;59577;52.122;5.406;2022-09-01T13:03:42;102097.38;;;26.50;26.91
71735;BME280;59577;52.122;5.406;2022-09-01T13:06:28;102099.97;;;26.57;26.87
71735;BME280;59577;52.122;5.406;2022-09-01T13:08:55;102094.38;;;26.40;27.27
71735;BME280;59577;52.122;5.406;2022-09-01T13:11:22;102100.91;;;26.50;28.04
71735;BME280;59577;52.122;5.406;2022-09-01T13:13:48;102099.41;;;26.66;28.87
71735;BME280;59577;52.122;5.406;2022-09-01T13:16:15;102095.22;;;27.07;28.00
71735;BME280;59577;52.122;5.406;2022-09-01T13:18:42;102086.19;;;27.02;27.86
71735;BME280;59577;52.122;5.406;2022-09-01T13:21:30;102090.72;;;26.96;27.51
71735;BME280;59577;52.122;5.406;2022-09-01T13:23:57;102081.44;;;26.70;27.17
71735;BME280;59577;52.122;5.406;2022-09-01T13:26:24;102082.94;;;26.38;27.63
71735;BME280;59577;52.122;5.406;2022-09-01T13:28:51;102072.81;;;26.48;27.54
71735;BME280;59577;52.122;5.406;2022-09-01T13:31:18;102069.50;;;26.53;28.04
71735;BME280;59577;52.122;5.406;2022-09-01T13:34:01;102080.16;;;26.38;27.64
71735;BME280;59577;52.122;5.406;2022-09-01T13:36:48;102077.41;;;26.55;27.75
71735;BME280;59577;52.122;5.406;2022-09-01T13:39:18;102070.53;;;26.59;28.32
71735;BME280;59577;52.122;5.406;2022-09-01T13:41:46;102066.84;;;26.82;28.16
71735;BME280;59577;52.122;5.406;2022-09-01T13:44:13;102060.91;;;26.97;26.78
71735;BME280;59577;52.122;5.406;2022-09-01T13:46:40;102067.44;;;26.90;26.83
71735;BME280;59577;52.122;5.406;2022-09-01T13:49:27;102055.56;;;26.90;27.09
71735;BME280;59577;52.122;5.406;2022-09-01T13:52:13;102058.84;;;26.85;27.47
71735;BME280;59577;52.122;5.406;2022-09-01T13:54:39;102055.66;;;26.70;27.45
71735;BME280;59577;52.122;5.406;2022-09-01T13:57:07;102051.44;;;26.45;27.63
71735;BME280;59577;52.122;5.406;2022-09-01T13:59:33;102054.50;;;26.51;28.00
71735;BME280;59577;52.122;5.406;2022-09-01T14:02:00;102047.81;;;26.48;28.63
71735;BME280;59577;52.122;5.406;2022-09-01T14:04:30;102046.88;;;26.71;29.01
71735;BME280;59577;52.122;5.406;2022-09-01T14:06:56;102051.19;;;26.89;28.94
71735;BME280;59577;52.122;5.406;2022-09-01T14:09:24;102045.13;;;26.94;26.93
71735;BME280;59577;52.122;5.406;2022-09-01T14:11:52;102036.59;;;27.01;27.85
71735;BME280;59577;52.122;5.406;2022-09-01T14:14:20;102034.84;;;27.07;27.32
71735;BME280;59577;52.122;5.406;2022-09-01T14:16:46;102028.31;;;27.14;28.14
71735;BME280;59577;52.122;5.406;2022-09-01T14:19:13;102028.75;;;27.12;27.27
71735;BME280;59577;52.122;5.406;2022-09-01T14:21:40;102031.53;;;27.12;26.93
71735;BME280;59577;52.122;5.406;2022-09-01T14:24:07;102033.13;;;27.13;27.02